createdAt,value
2023-03-15T00:00:56.194Z,0.20
2023-03-15T00:01:56.176Z,0.20
2023-03-15T00:02:56.156Z,0.30
2023-03-15T00:03:56.222Z,0.20
2023-03-15T00:04:56.148Z,0.20
2023-03-15T00:05:56.116Z,0.20
2023-03-15T00:06:56.098Z,0.20
2023-03-15T00:07:56.089Z,0.30
2023-03-15T00:08:56.074Z,0.20
2023-03-15T00:09:56.069Z,0.20
2023-03-15T00:10:56.048Z,0.20
2023-03-15T00:11:56.041Z,0.20
2023-03-15T00:12:56.023Z,0.20
2023-03-15T00:13:56.010Z,0.20
2023-03-15T00:14:55.999Z,0.20
2023-03-15T00:15:56.004Z,0.20
2023-03-15T00:16:55.969Z,0.30
2023-03-15T00:17:55.966Z,0.30
2023-03-15T00:18:55.944Z,0.20
2023-03-15T00:19:55.935Z,0.20
2023-03-15T00:20:55.943Z,0.20
2023-03-15T00:21:55.913Z,0.20
2023-03-15T00:22:55.892Z,0.20
2023-03-15T00:23:55.896Z,0.20
2023-03-15T00:24:55.866Z,0.20
2023-03-15T00:25:55.891Z,0.20
2023-03-15T00:26:55.844Z,0.20
2023-03-15T00:27:55.828Z,0.20
2023-03-15T00:28:55.815Z,0.30
2023-03-15T00:29:55.805Z,0.20
2023-03-15T00:30:55.813Z,0.30
2023-03-15T00:31:55.779Z,0.20
2023-03-15T00:32:55.872Z,0.20
2023-03-15T00:33:55.767Z,0.30
2023-03-15T00:34:55.742Z,0.20
2023-03-15T00:35:55.791Z,0.30
2023-03-15T00:36:55.734Z,0.30
2023-03-15T00:37:55.705Z,0.30
2023-03-15T00:38:55.696Z,0.30
2023-03-15T00:39:55.774Z,0.20
2023-03-15T00:40:55.663Z,0.30
2023-03-15T00:41:55.650Z,0.20
2023-03-15T00:42:55.637Z,0.30
2023-03-15T00:43:55.627Z,0.30
2023-03-15T00:44:55.611Z,0.20
2023-03-15T00:45:55.598Z,0.30
2023-03-15T00:46:55.659Z,0.20
2023-03-15T00:47:55.582Z,0.30
2023-03-15T00:48:55.559Z,0.20
2023-03-15T00:49:55.548Z,0.20
2023-03-15T00:50:55.534Z,0.20
2023-03-15T00:51:55.523Z,0.20
2023-03-15T00:52:55.533Z,0.20
2023-03-15T00:53:55.506Z,0.20
2023-03-15T00:54:55.491Z,0.20
2023-03-15T00:55:55.475Z,0.20
2023-03-15T00:56:55.476Z,0.20
2023-03-15T00:57:55.447Z,0.20
2023-03-15T00:58:55.476Z,0.10
2023-03-15T00:59:55.451Z,0.20
2023-03-15T01:00:55.407Z,0.20
2023-03-15T01:01:55.451Z,0.20
2023-03-15T01:02:55.466Z,0.20
2023-03-15T01:03:55.381Z,0.20
2023-03-15T01:04:55.357Z,0.20
2023-03-15T01:05:55.346Z,0.20
2023-03-15T01:06:55.332Z,0.30
2023-03-15T01:07:55.316Z,0.20
2023-03-15T01:08:55.380Z,0.30
2023-03-15T01:09:55.293Z,0.30
2023-03-15T01:11:55.266Z,0.30
2023-03-15T01:12:55.257Z,0.30
2023-03-15T01:13:55.247Z,0.30
2023-03-15T01:14:55.226Z,0.30
2023-03-15T01:15:55.241Z,0.30
2023-03-15T01:16:55.201Z,0.30
2023-03-15T01:17:55.189Z,0.20
2023-03-15T01:18:55.199Z,0.30
2023-03-15T01:19:55.163Z,0.20
2023-03-15T01:20:55.154Z,0.30
2023-03-15T01:21:55.140Z,0.30
2023-03-15T01:22:55.125Z,0.20
2023-03-15T01:23:55.136Z,0.30
2023-03-15T01:24:55.120Z,0.30
2023-03-15T01:25:55.089Z,0.30
2023-03-15T01:26:55.073Z,0.30
2023-03-15T01:27:55.071Z,0.20
2023-03-15T01:28:55.048Z,0.30
2023-03-15T01:29:55.038Z,0.20
2023-03-15T01:30:55.052Z,0.30
2023-03-15T01:31:55.156Z,0.20
2023-03-15T01:32:55.038Z,0.30
2023-03-15T01:33:54.985Z,0.30
2023-03-15T01:34:54.971Z,0.20
2023-03-15T01:35:55.007Z,0.30
2023-03-15T01:36:54.972Z,0.20
2023-03-15T01:37:54.935Z,0.20
2023-03-15T01:38:55.024Z,0.20
2023-03-15T01:39:54.909Z,0.20
2023-03-15T01:40:54.919Z,0.30
2023-03-15T01:41:54.883Z,0.20
2023-03-15T01:42:54.868Z,0.30
2023-03-15T01:43:54.862Z,0.20
2023-03-15T01:44:54.857Z,0.20
2023-03-15T01:45:54.831Z,0.20
2023-03-15T01:46:54.893Z,0.20
2023-03-15T01:47:54.807Z,0.20
2023-03-15T01:48:54.793Z,0.20
2023-03-15T01:49:54.781Z,0.20
2023-03-15T01:50:54.767Z,0.30
2023-03-15T01:51:54.764Z,0.20
2023-03-15T01:52:54.742Z,0.30
2023-03-15T01:53:54.730Z,0.20
2023-03-15T01:54:54.718Z,0.20
2023-03-15T01:55:54.719Z,0.30
2023-03-15T01:56:54.720Z,0.20
2023-03-15T01:57:54.677Z,0.30
2023-03-15T01:58:54.664Z,0.20
2023-03-15T01:59:54.653Z,0.20
2023-03-15T02:00:54.669Z,0.30
2023-03-15T02:01:54.770Z,0.20
2023-03-15T02:02:54.618Z,0.30
2023-03-15T02:03:54.608Z,0.20
2023-03-15T02:04:54.589Z,0.20
2023-03-15T02:05:54.608Z,0.20
2023-03-15T02:06:54.563Z,0.20
2023-03-15T02:07:54.562Z,0.30
2023-03-15T02:08:54.536Z,0.30
2023-03-15T02:09:54.524Z,0.20
2023-03-15T02:10:54.512Z,0.20
2023-03-15T02:11:54.502Z,0.20
2023-03-15T02:12:54.508Z,0.30
2023-03-15T02:13:54.478Z,0.20
2023-03-15T02:14:54.462Z,0.20
2023-03-15T02:15:54.455Z,0.20
2023-03-15T02:16:54.437Z,0.20
2023-03-15T02:17:54.425Z,0.20
2023-03-15T02:18:54.421Z,0.20
2023-03-15T02:19:54.400Z,0.20
2023-03-15T02:20:54.386Z,0.20
2023-03-15T02:21:54.380Z,0.20
2023-03-15T02:22:54.361Z,0.30
2023-03-15T02:23:54.348Z,0.20
2023-03-15T02:24:54.335Z,0.20
2023-03-15T02:25:54.325Z,0.30
2023-03-15T02:26:54.395Z,0.20
2023-03-15T02:27:54.311Z,0.30
2023-03-15T02:28:54.372Z,0.20
2023-03-15T02:29:54.270Z,0.30
2023-03-15T02:30:54.258Z,0.20
2023-03-15T02:31:54.329Z,0.20
2023-03-15T02:32:54.261Z,0.20
2023-03-15T02:33:54.222Z,0.20
2023-03-15T02:34:54.216Z,0.30
2023-03-15T02:35:54.246Z,0.30
2023-03-15T02:36:54.231Z,0.20
2023-03-15T02:37:54.173Z,0.30
2023-03-15T02:38:54.163Z,0.20
2023-03-15T02:39:54.144Z,0.30
2023-03-15T02:40:54.132Z,0.20
2023-03-15T02:41:54.118Z,0.30
2023-03-15T02:42:54.115Z,0.20
2023-03-15T02:43:54.094Z,0.30
2023-03-15T02:44:54.107Z,0.30
2023-03-15T02:45:54.115Z,0.20
2023-03-15T02:46:54.056Z,0.30
2023-03-15T02:47:54.046Z,0.30
2023-03-15T02:48:54.038Z,0.30
2023-03-15T02:49:54.081Z,0.20
2023-03-15T02:50:54.007Z,0.30
2023-03-15T02:51:54.004Z,0.30
2023-03-15T02:52:53.993Z,0.30
2023-03-15T02:53:53.968Z,0.20
2023-03-15T02:54:53.956Z,0.20
2023-03-15T02:55:53.945Z,0.30
2023-03-15T02:56:53.929Z,0.20
2023-03-15T02:57:53.924Z,0.30
2023-03-15T02:58:53.911Z,0.20
2023-03-15T02:59:53.903Z,0.20
2023-03-15T03:00:54.128Z,0.20
2023-03-15T03:01:53.869Z,0.20
2023-03-15T03:03:53.848Z,0.30
2023-03-15T03:04:53.848Z,0.20
2023-03-15T03:05:53.822Z,0.30
2023-03-15T03:06:53.808Z,0.20
2023-03-15T03:07:53.791Z,0.30
2023-03-15T03:08:53.777Z,0.20
2023-03-15T03:09:53.769Z,0.30
2023-03-15T03:10:53.754Z,0.30
2023-03-15T03:11:53.746Z,0.20
2023-03-15T03:12:53.833Z,0.20
2023-03-15T03:13:53.719Z,0.20
2023-03-15T03:14:53.700Z,0.30
2023-03-15T03:15:53.693Z,0.20
2023-03-15T03:16:53.767Z,0.20
2023-03-15T03:17:53.689Z,0.20
2023-03-15T03:18:53.657Z,0.20
2023-03-15T03:19:53.641Z,0.20
2023-03-15T03:20:53.622Z,0.20
2023-03-15T03:21:53.612Z,0.30
2023-03-15T03:22:53.592Z,0.30
2023-03-15T03:23:53.580Z,0.20
2023-03-15T03:24:53.568Z,0.20
2023-03-15T03:25:53.552Z,0.20
2023-03-15T03:26:53.542Z,0.30
2023-03-15T03:27:53.527Z,0.20
2023-03-15T03:28:53.516Z,0.30
2023-03-15T03:29:53.500Z,0.20
2023-03-15T03:30:53.535Z,0.30
2023-03-15T03:31:53.474Z,0.30
2023-03-15T03:32:53.509Z,0.20
2023-03-15T03:33:53.447Z,0.30
2023-03-15T03:34:53.441Z,0.20
2023-03-15T03:35:53.474Z,0.30
2023-03-15T03:36:53.409Z,0.30
2023-03-15T03:37:53.394Z,0.20
2023-03-15T03:38:53.385Z,0.30
2023-03-15T03:39:53.373Z,0.20
2023-03-15T03:40:53.357Z,0.30
2023-03-15T03:41:53.348Z,0.30
2023-03-15T03:42:53.332Z,0.30
2023-03-15T03:43:53.318Z,0.30
2023-03-15T03:44:53.312Z,0.20
2023-03-15T03:45:53.315Z,0.30
2023-03-15T03:46:53.280Z,0.30
2023-03-15T03:47:53.269Z,0.20
2023-03-15T03:48:53.335Z,0.30
2023-03-15T03:49:53.246Z,0.20
2023-03-15T03:50:53.230Z,0.30
2023-03-15T03:51:53.214Z,0.20
2023-03-15T03:52:53.205Z,0.20
2023-03-15T03:53:53.188Z,0.20
2023-03-15T03:54:53.177Z,0.20
2023-03-15T03:55:53.164Z,0.30
2023-03-15T03:56:53.150Z,0.20
2023-03-15T03:57:53.151Z,0.30
2023-03-15T03:58:53.131Z,0.20
2023-03-15T03:59:53.111Z,0.20
2023-03-15T04:00:53.101Z,0.30
2023-03-15T04:01:53.085Z,0.20
2023-03-15T04:02:53.101Z,0.20
2023-03-15T04:03:53.061Z,0.20
2023-03-15T04:04:53.195Z,0.30
2023-03-15T04:05:53.034Z,0.20
2023-03-15T04:06:53.023Z,0.20
2023-03-15T04:07:53.010Z,0.20
2023-03-15T04:08:53.000Z,0.20
2023-03-15T04:09:52.986Z,0.20
2023-03-15T04:10:52.974Z,0.20
2023-03-15T04:11:52.961Z,0.20
2023-03-15T04:12:52.954Z,0.20
2023-03-15T04:13:52.932Z,0.20
2023-03-15T04:14:52.934Z,0.20
2023-03-15T04:15:52.915Z,0.20
2023-03-15T04:16:52.898Z,0.20
2023-03-15T04:17:52.881Z,0.20
2023-03-15T04:18:52.867Z,0.20
2023-03-15T04:19:52.854Z,0.30
2023-03-15T04:20:52.867Z,0.20
2023-03-15T04:21:52.840Z,0.20
2023-03-15T04:22:52.814Z,0.20
2023-03-15T04:23:52.801Z,0.20
2023-03-15T04:24:52.789Z,0.20
2023-03-15T04:25:52.780Z,0.30
2023-03-15T04:26:52.763Z,0.20
2023-03-15T04:27:52.750Z,0.20
2023-03-15T04:28:52.740Z,0.20
2023-03-15T04:29:52.735Z,0.20
2023-03-15T04:30:52.722Z,0.30
2023-03-15T04:31:52.700Z,0.20
2023-03-15T04:32:52.743Z,0.30
2023-03-15T04:33:52.676Z,0.30
2023-03-15T04:34:52.665Z,0.20
2023-03-15T04:35:52.724Z,0.30
2023-03-15T04:36:52.663Z,0.20
2023-03-15T04:37:52.626Z,0.30
2023-03-15T04:38:52.616Z,0.30
2023-03-15T04:39:52.626Z,0.40
2023-03-15T04:40:52.598Z,0.30
2023-03-15T04:41:52.576Z,0.30
2023-03-15T04:42:52.564Z,0.30
2023-03-15T04:43:52.553Z,0.20
2023-03-15T04:44:52.541Z,0.30
2023-03-15T04:45:52.524Z,0.20
2023-03-15T04:46:52.552Z,0.40
2023-03-15T04:47:52.557Z,0.30
2023-03-15T04:48:52.488Z,0.30
2023-03-15T04:49:52.473Z,0.30
2023-03-15T04:50:52.463Z,0.30
2023-03-15T04:51:52.447Z,0.30
2023-03-15T04:52:52.486Z,0.20
2023-03-15T04:53:52.423Z,0.40
2023-03-15T04:54:52.416Z,0.30
2023-03-15T04:55:52.398Z,0.30
2023-03-15T04:56:52.386Z,0.40
2023-03-15T04:57:52.372Z,0.40
2023-03-15T04:58:52.356Z,0.40
2023-03-15T04:59:52.345Z,0.30
2023-03-15T05:00:52.356Z,0.40
2023-03-15T05:01:52.374Z,0.30
2023-03-15T05:02:52.314Z,0.30
2023-03-15T05:03:52.290Z,0.30
2023-03-15T05:04:52.282Z,0.30
2023-03-15T05:05:52.271Z,0.40
2023-03-15T05:06:52.257Z,0.30
2023-03-15T05:07:52.249Z,0.30
2023-03-15T05:08:52.254Z,0.40
2023-03-15T05:09:52.231Z,0.30
2023-03-15T05:10:52.210Z,0.40
2023-03-15T05:11:52.189Z,0.30
2023-03-15T05:12:52.176Z,0.40
2023-03-15T05:13:52.165Z,0.30
2023-03-15T05:14:54.155Z,0.40
2023-03-15T05:15:52.137Z,0.30
2023-03-15T05:16:52.133Z,0.30
2023-03-15T05:17:52.114Z,0.40
2023-03-15T05:18:52.101Z,0.40
2023-03-15T05:19:52.087Z,0.30
2023-03-15T05:20:52.081Z,0.30
2023-03-15T05:21:52.062Z,0.30
2023-03-15T05:22:52.050Z,0.30
2023-03-15T05:23:52.049Z,0.30
2023-03-15T05:24:52.103Z,0.40
2023-03-15T05:25:52.011Z,0.30
2023-03-15T05:26:51.998Z,0.30
2023-03-15T05:27:51.986Z,0.30
2023-03-15T05:28:51.973Z,0.30
2023-03-15T05:29:51.960Z,0.30
2023-03-15T05:30:51.974Z,0.20
2023-03-15T05:31:51.954Z,0.30
2023-03-15T05:32:52.023Z,0.20
2023-03-15T05:33:51.905Z,0.30
2023-03-15T05:34:51.900Z,0.30
2023-03-15T05:35:51.930Z,0.30
2023-03-15T05:36:51.887Z,0.30
2023-03-15T05:37:51.857Z,0.30
2023-03-15T05:38:51.848Z,0.30
2023-03-15T05:39:51.831Z,0.30
2023-03-15T05:40:51.847Z,0.30
2023-03-15T05:41:51.809Z,0.40
2023-03-15T05:42:51.793Z,0.30
2023-03-15T05:43:51.787Z,0.30
2023-03-15T05:44:51.768Z,0.30
2023-03-15T05:45:51.807Z,0.40
2023-03-15T05:46:51.742Z,0.30
2023-03-15T05:47:51.737Z,0.30
2023-03-15T05:48:51.715Z,0.40
2023-03-15T05:49:51.702Z,0.30
2023-03-15T05:50:51.690Z,0.40
2023-03-15T05:51:51.677Z,0.30
2023-03-15T05:52:51.667Z,0.30
2023-03-15T05:53:51.649Z,55.09
2023-03-15T05:54:51.638Z,0.90
2023-03-15T05:55:51.623Z,1.00
2023-03-15T05:56:51.739Z,1.00
2023-03-15T05:57:51.601Z,1.10
2023-03-15T05:58:51.590Z,0.80
2023-03-15T05:59:53.112Z,0.80
2023-03-15T06:00:51.561Z,1.00
2023-03-15T06:01:51.547Z,0.90
2023-03-15T06:02:51.540Z,1.20
2023-03-15T06:03:51.569Z,1.00
2023-03-15T06:04:51.523Z,64.40
2023-03-15T06:05:51.496Z,0.90
2023-03-15T06:06:51.480Z,0.80
2023-03-15T06:07:51.473Z,1.00
2023-03-15T06:08:51.456Z,0.90
2023-03-15T06:09:51.439Z,1.10
2023-03-15T06:10:51.429Z,0.90
2023-03-15T06:11:51.420Z,0.80
2023-03-15T06:12:51.432Z,0.90
2023-03-15T06:13:51.389Z,0.80
2023-03-15T06:14:51.380Z,7.90
2023-03-15T06:15:51.362Z,17.60
2023-03-15T06:16:51.387Z,1.00
2023-03-15T06:17:51.341Z,0.90
2023-03-15T06:18:51.351Z,1.10
2023-03-15T06:19:51.312Z,1.00
2023-03-15T06:20:51.306Z,0.80
2023-03-15T06:21:51.295Z,1.00
2023-03-15T06:22:51.273Z,0.70
2023-03-15T06:23:51.260Z,0.90
2023-03-15T06:24:51.253Z,0.90
2023-03-15T06:25:51.234Z,50.90
2023-03-15T06:26:51.222Z,0.90
2023-03-15T06:27:51.206Z,0.90
2023-03-15T06:28:51.221Z,1.10
2023-03-15T06:29:51.183Z,1.00
2023-03-15T06:30:51.231Z,1.00
2023-03-15T06:31:51.170Z,1.00
2023-03-15T06:32:51.250Z,1.00
2023-03-15T06:33:51.136Z,0.90
2023-03-15T06:34:51.115Z,0.80
2023-03-15T06:35:51.131Z,1.00
2023-03-15T06:36:51.094Z,54.70
2023-03-15T06:37:51.087Z,1.20
2023-03-15T06:38:51.071Z,1.00
2023-03-15T06:39:51.055Z,1.00
2023-03-15T06:40:51.047Z,1.00
2023-03-15T06:41:51.026Z,1.00
2023-03-15T06:42:51.015Z,0.90
2023-03-15T06:43:51.006Z,0.90
2023-03-15T06:44:51.288Z,1.00
2023-03-15T06:45:51.037Z,0.80
2023-03-15T06:46:50.964Z,10.00
2023-03-15T06:47:50.951Z,18.50
2023-03-15T06:48:50.939Z,1.00
2023-03-15T06:49:50.933Z,1.10
2023-03-15T06:50:50.919Z,1.00
2023-03-15T06:51:50.903Z,1.00
2023-03-15T06:52:50.886Z,1.00
2023-03-15T06:53:50.879Z,1.10
2023-03-15T06:54:50.862Z,1.20
2023-03-15T06:55:50.854Z,1.00
2023-03-15T06:56:50.835Z,1.10
2023-03-15T06:57:50.822Z,48.59
2023-03-15T06:58:50.812Z,65.30
2023-03-15T06:59:50.807Z,58.59
2023-03-15T07:00:50.809Z,58.59
2023-03-15T07:01:50.852Z,62.29
2023-03-15T07:02:50.827Z,60.29
2023-03-15T07:03:50.748Z,58.50
2023-03-15T07:04:50.750Z,59.79
2023-03-15T07:05:50.722Z,59.00
2023-03-15T07:06:50.711Z,60.20
2023-03-15T07:07:50.711Z,60.09
2023-03-15T07:08:50.703Z,60.29
2023-03-15T07:09:50.673Z,61.90
2023-03-15T07:10:50.665Z,58.00
2023-03-15T07:11:50.649Z,57.40
2023-03-15T07:12:50.636Z,73.30
2023-03-15T07:13:50.642Z,87.09
2023-03-15T07:14:50.611Z,105.80
2023-03-15T07:15:50.750Z,104.90
2023-03-15T07:16:50.617Z,126.69
2023-03-15T07:17:50.581Z,115.59
2023-03-15T07:18:50.561Z,74.80
2023-03-15T07:19:56.627Z,84.50
2023-03-15T07:20:50.534Z,66.30
2023-03-15T07:21:50.523Z,67.30
2023-03-15T07:22:50.511Z,69.69
2023-03-15T07:23:50.492Z,66.00
2023-03-15T07:24:50.481Z,65.09
2023-03-15T07:25:55.004Z,67.30
2023-03-15T07:26:50.468Z,65.50
2023-03-15T07:27:50.439Z,61.70
2023-03-15T07:28:50.429Z,64.09
2023-03-15T07:29:50.417Z,62.79
2023-03-15T07:30:50.402Z,64.80
2023-03-15T07:31:50.451Z,74.90
2023-03-15T07:32:50.604Z,81.00
2023-03-15T07:33:50.361Z,69.80
2023-03-15T07:34:50.350Z,62.00
2023-03-15T07:35:50.334Z,54.50
2023-03-15T07:36:50.330Z,54.20
2023-03-15T07:38:50.297Z,53.70
2023-03-15T07:39:50.278Z,55.29
2023-03-15T07:40:50.265Z,58.59
2023-03-15T07:41:50.252Z,57.29
2023-03-15T07:42:50.238Z,59.40
2023-03-15T07:43:50.228Z,61.00
2023-03-15T07:44:50.205Z,63.40
2023-03-15T07:45:50.196Z,66.30
2023-03-15T07:46:50.228Z,65.80
2023-03-15T07:47:50.171Z,65.69
2023-03-15T07:48:50.182Z,60.90
2023-03-15T07:49:50.144Z,60.40
2023-03-15T07:50:50.129Z,61.09
2023-03-15T07:51:50.120Z,55.79
2023-03-15T07:52:50.106Z,62.40
2023-03-15T07:53:50.099Z,68.50
2023-03-15T07:54:50.079Z,72.69
2023-03-15T07:55:50.071Z,77.30
2023-03-15T07:56:50.055Z,83.59
2023-03-15T07:57:52.206Z,86.90
2023-03-15T07:58:50.030Z,113.19
2023-03-15T07:59:50.020Z,128.10
2023-03-15T08:00:50.001Z,117.40
2023-03-15T08:01:50.047Z,112.80
2023-03-15T08:02:50.013Z,103.50
2023-03-15T08:03:49.964Z,128.89
2023-03-15T08:04:49.971Z,127.90
2023-03-15T08:05:49.938Z,118.50
2023-03-15T08:06:49.927Z,122.19
2023-03-15T08:07:49.959Z,124.59
2023-03-15T08:08:49.905Z,120.50
2023-03-15T08:09:49.883Z,126.00
2023-03-15T08:10:49.880Z,117.50
2023-03-15T08:11:49.864Z,124.00
2023-03-15T08:12:49.868Z,119.40
2023-03-15T08:13:49.853Z,127.40
2023-03-15T08:14:49.820Z,96.40
2023-03-15T08:15:49.805Z,84.59
2023-03-15T08:16:49.840Z,83.00
2023-03-15T08:17:49.846Z,84.69
2023-03-15T08:18:49.766Z,84.69
2023-03-15T08:19:49.752Z,79.80
2023-03-15T08:20:49.763Z,80.19
2023-03-15T08:21:49.733Z,72.69
2023-03-15T08:22:49.715Z,68.19
2023-03-15T08:23:49.703Z,64.50
2023-03-15T08:24:49.694Z,63.90
2023-03-15T08:25:49.677Z,61.50
2023-03-15T08:26:49.663Z,63.09
2023-03-15T08:27:49.782Z,64.69
2023-03-15T08:28:49.635Z,63.40
2023-03-15T08:29:49.650Z,60.59
2023-03-15T08:30:49.625Z,65.30
2023-03-15T08:31:49.670Z,62.70
2023-03-15T08:32:49.630Z,61.59
2023-03-15T08:33:49.584Z,60.70
2023-03-15T08:34:49.579Z,60.90
2023-03-15T08:35:49.603Z,60.70
2023-03-15T08:36:49.713Z,63.50
2023-03-15T08:37:49.663Z,67.00
2023-03-15T08:38:49.508Z,68.19
2023-03-15T08:39:49.500Z,78.19
2023-03-15T08:40:49.492Z,93.40
2023-03-15T08:41:49.472Z,115.09
2023-03-15T08:42:49.460Z,116.09
2023-03-15T08:43:49.446Z,87.30
2023-03-15T08:44:49.431Z,81.59
2023-03-15T08:46:00.656Z,77.30
2023-03-15T08:46:51.480Z,77.09
2023-03-15T08:47:49.488Z,79.80
2023-03-15T08:48:49.377Z,97.19
2023-03-15T08:49:49.366Z,104.80
2023-03-15T08:50:49.355Z,97.80
2023-03-15T08:51:49.341Z,102.59
2023-03-15T08:52:49.348Z,101.19
2023-03-15T08:53:49.313Z,95.40
2023-03-15T08:54:49.299Z,101.19
2023-03-15T08:55:49.296Z,93.40
2023-03-15T08:56:49.274Z,103.90
2023-03-15T08:57:49.264Z,97.80
2023-03-15T08:58:49.246Z,97.09
2023-03-15T08:59:49.235Z,97.50
2023-03-15T09:00:49.240Z,94.40
2023-03-15T09:01:49.217Z,98.80
2023-03-15T09:02:49.243Z,101.69
2023-03-15T09:03:49.185Z,97.09
2023-03-15T09:04:49.168Z,89.50
2023-03-15T09:05:49.158Z,96.19
2023-03-15T09:06:49.142Z,101.90
2023-03-15T09:07:49.132Z,99.40
2023-03-15T09:08:49.144Z,113.30
2023-03-15T09:09:49.110Z,101.69
2023-03-15T09:10:49.088Z,113.40
2023-03-15T09:11:49.081Z,121.50
2023-03-15T09:12:49.063Z,122.90
2023-03-15T09:13:49.050Z,114.90
2023-03-15T09:14:49.045Z,116.90
2023-03-15T09:15:49.024Z,113.90
2023-03-15T09:16:49.087Z,113.50
2023-03-15T09:17:49.013Z,112.50
2023-03-15T09:18:48.988Z,112.30
2023-03-15T09:19:48.976Z,112.09
2023-03-15T09:20:48.974Z,109.19
2023-03-15T09:21:48.955Z,109.80
2023-03-15T09:22:48.935Z,125.59
2023-03-15T09:23:48.924Z,124.90
2023-03-15T09:24:50.419Z,119.80
2023-03-15T09:25:48.901Z,117.80
2023-03-15T09:26:48.886Z,121.59
2023-03-15T09:27:48.878Z,98.69
2023-03-15T09:28:48.861Z,105.40
2023-03-15T09:29:48.850Z,114.40
2023-03-15T09:30:48.903Z,116.69
2023-03-15T09:31:48.822Z,114.09
2023-03-15T09:32:48.885Z,105.90
2023-03-15T09:33:48.798Z,116.19
2023-03-15T09:34:48.797Z,80.90
2023-03-15T09:35:48.832Z,83.09
2023-03-15T09:36:48.852Z,62.79
2023-03-15T09:37:48.751Z,80.59
2023-03-15T09:38:48.732Z,82.90
2023-03-15T09:39:48.832Z,70.30
2023-03-15T09:40:48.732Z,79.09
2023-03-15T09:41:48.693Z,62.70
2023-03-15T09:42:48.679Z,78.40
2023-03-15T09:43:48.669Z,73.50
2023-03-15T09:44:48.652Z,78.69
2023-03-15T09:45:48.661Z,79.90
2023-03-15T09:46:48.712Z,82.09
2023-03-15T09:47:48.618Z,86.19
2023-03-15T09:48:48.603Z,88.80
2023-03-15T09:49:48.592Z,75.19
2023-03-15T09:50:48.578Z,78.59
2023-03-15T09:51:48.569Z,72.40
2023-03-15T09:52:48.551Z,85.09
2023-03-15T09:53:48.540Z,81.09
2023-03-15T09:54:48.525Z,82.00
2023-03-15T09:55:48.521Z,77.80
2023-03-15T09:56:48.526Z,80.30
2023-03-15T09:57:48.491Z,76.09
2023-03-15T09:58:48.473Z,81.19
2023-03-15T09:59:48.463Z,96.50
2023-03-15T10:00:48.445Z,79.50
2023-03-15T10:01:48.490Z,71.80
2023-03-15T10:02:48.420Z,76.69
2023-03-15T10:03:48.490Z,75.90
2023-03-15T10:04:48.393Z,68.00
2023-03-15T10:05:48.382Z,71.00
2023-03-15T10:06:48.368Z,68.00
2023-03-15T10:07:48.358Z,76.09
2023-03-15T10:08:48.341Z,70.59
2023-03-15T10:09:48.331Z,71.50
2023-03-15T10:10:48.316Z,68.59
2023-03-15T10:11:48.318Z,75.09
2023-03-15T10:12:48.314Z,72.69
2023-03-15T10:13:48.280Z,72.59
2023-03-15T10:14:48.267Z,68.30
2023-03-15T10:15:48.289Z,72.09
2023-03-15T10:16:48.240Z,72.69
2023-03-15T10:17:48.234Z,68.90
2023-03-15T10:18:48.223Z,73.50
2023-03-15T10:19:48.202Z,80.90
2023-03-15T10:20:48.189Z,79.30
2023-03-15T10:21:48.177Z,76.30
2023-03-15T10:22:48.163Z,77.00
2023-03-15T10:23:48.157Z,82.00
2023-03-15T10:24:48.138Z,89.59
2023-03-15T10:25:48.128Z,91.69
2023-03-15T10:26:48.133Z,88.69
2023-03-15T10:27:48.106Z,95.40
2023-03-15T10:28:48.108Z,90.40
2023-03-15T10:29:48.075Z,113.40
2023-03-15T10:30:48.078Z,115.59
2023-03-15T10:31:48.097Z,116.00
2023-03-15T10:32:48.087Z,108.69
2023-03-15T10:33:48.024Z,116.00
2023-03-15T10:34:48.017Z,106.90
2023-03-15T10:35:48.033Z,109.80
2023-03-15T10:36:47.977Z,103.59
2023-03-15T10:37:47.965Z,107.19
2023-03-15T10:38:47.953Z,113.00
2023-03-15T10:39:47.944Z,122.09
2023-03-15T10:40:47.926Z,133.69
2023-03-15T10:41:47.914Z,132.50
2023-03-15T10:42:47.898Z,132.50
2023-03-15T10:43:47.894Z,137.60
2023-03-15T10:44:47.899Z,117.00
2023-03-15T10:45:47.862Z,117.40
2023-03-15T10:46:47.885Z,116.50
2023-03-15T10:47:57.681Z,114.00
2023-03-15T10:48:47.819Z,116.40
2023-03-15T10:49:47.823Z,111.50
2023-03-15T10:50:47.792Z,105.59
2023-03-15T10:51:47.798Z,111.30
2023-03-15T10:52:49.872Z,111.09
2023-03-15T10:53:47.758Z,123.30
2023-03-15T10:54:50.080Z,118.69
2023-03-15T10:55:47.728Z,122.59
2023-03-15T10:56:47.712Z,117.80
2023-03-15T10:57:47.708Z,113.19
2023-03-15T10:58:55.574Z,103.50
2023-03-15T10:59:47.674Z,109.40
2023-03-15T11:00:47.690Z,109.00
2023-03-15T11:01:47.661Z,108.19
2023-03-15T11:02:47.699Z,106.09
2023-03-15T11:04:47.605Z,93.69
2023-03-15T11:05:47.593Z,89.59
2023-03-15T11:06:47.586Z,101.50
2023-03-15T11:07:47.569Z,100.40
2023-03-15T11:08:47.564Z,107.09
2023-03-15T11:09:47.542Z,104.80
2023-03-15T11:10:47.527Z,92.40
2023-03-15T11:11:47.515Z,90.50
2023-03-15T11:12:47.505Z,100.00
2023-03-15T11:13:47.565Z,100.30
2023-03-15T11:14:47.473Z,91.69
2023-03-15T11:15:47.574Z,95.80
2023-03-15T11:16:47.478Z,88.09
2023-03-15T11:17:47.435Z,93.59
2023-03-15T11:18:47.421Z,90.19
2023-03-15T11:19:47.408Z,89.40
2023-03-15T11:20:47.393Z,92.50
2023-03-15T11:21:47.382Z,88.40
2023-03-15T11:22:47.367Z,84.59
2023-03-15T11:23:47.357Z,88.00
2023-03-15T11:24:47.366Z,84.19
2023-03-15T11:25:47.334Z,94.59
2023-03-15T11:26:47.314Z,93.40
2023-03-15T11:27:47.303Z,100.80
2023-03-15T11:28:47.293Z,90.59
2023-03-15T11:29:47.278Z,95.69
2023-03-15T11:30:48.548Z,94.30
2023-03-15T11:31:47.339Z,111.50
2023-03-15T11:32:47.311Z,92.30
2023-03-15T11:33:47.224Z,110.00
2023-03-15T11:34:47.212Z,100.00
2023-03-15T11:35:47.241Z,93.90
2023-03-15T11:36:49.080Z,93.09
2023-03-15T11:37:47.181Z,98.00
2023-03-15T11:38:47.162Z,96.80
2023-03-15T11:39:47.159Z,95.30
2023-03-15T11:40:47.133Z,95.80
2023-03-15T11:41:47.120Z,95.09
2023-03-15T11:42:47.107Z,93.69
2023-03-15T11:43:47.097Z,101.30
2023-03-15T11:44:47.081Z,94.19
2023-03-15T11:45:47.158Z,97.90
2023-03-15T11:46:47.056Z,107.19
2023-03-15T11:47:47.046Z,100.90
2023-03-15T11:48:47.060Z,100.00
2023-03-15T11:49:47.021Z,99.09
2023-03-15T11:50:47.009Z,106.00
2023-03-15T11:51:46.996Z,88.80
2023-03-15T11:52:46.982Z,100.50
2023-03-15T11:53:46.969Z,90.69
2023-03-15T11:54:46.956Z,97.80
2023-03-15T11:55:46.940Z,83.50
2023-03-15T11:56:46.928Z,87.19
2023-03-15T11:57:46.913Z,85.69
2023-03-15T11:58:46.904Z,92.59
2023-03-15T11:59:46.927Z,90.30
2023-03-15T12:00:46.886Z,91.59
2023-03-15T12:01:46.902Z,80.40
2023-03-15T12:02:46.849Z,84.30
2023-03-15T12:03:46.922Z,87.50
2023-03-15T12:04:46.856Z,78.80
2023-03-15T12:05:46.829Z,97.30
2023-03-15T12:06:46.800Z,96.90
2023-03-15T12:07:46.782Z,99.40
2023-03-15T12:08:46.774Z,100.90
2023-03-15T12:09:46.760Z,85.19
2023-03-15T12:10:46.742Z,78.09
2023-03-15T12:11:46.730Z,69.19
2023-03-15T12:12:46.719Z,69.80
2023-03-15T12:13:46.709Z,81.90
2023-03-15T12:14:46.695Z,82.90
2023-03-15T12:15:46.692Z,68.50
2023-03-15T12:16:46.749Z,80.90
2023-03-15T12:17:46.653Z,70.59
2023-03-15T12:18:46.649Z,74.59
2023-03-15T12:19:46.631Z,74.19
2023-03-15T12:20:46.644Z,71.50
2023-03-15T12:21:46.601Z,76.90
2023-03-15T12:22:46.590Z,73.19
2023-03-15T12:23:46.580Z,73.59
2023-03-15T12:24:46.610Z,71.80
2023-03-15T12:25:54.806Z,74.80
2023-03-15T12:26:46.541Z,62.79
2023-03-15T12:27:46.527Z,66.69
2023-03-15T12:28:46.514Z,84.19
2023-03-15T12:29:46.511Z,78.90
2023-03-15T12:30:46.534Z,84.59
2023-03-15T12:31:46.472Z,71.69
2023-03-15T12:32:46.491Z,70.80
2023-03-15T12:33:46.469Z,78.30
2023-03-15T12:34:46.438Z,76.50
2023-03-15T12:35:46.434Z,82.09
2023-03-15T12:36:46.440Z,80.69
2023-03-15T12:37:46.396Z,68.09
2023-03-15T12:38:46.378Z,65.80
2023-03-15T12:39:46.363Z,66.00
2023-03-15T12:40:46.354Z,78.90
2023-03-15T12:41:46.340Z,75.19
2023-03-15T12:42:46.325Z,80.50
2023-03-15T12:43:46.330Z,71.19
2023-03-15T12:44:46.309Z,73.59
2023-03-15T12:45:46.297Z,68.00
2023-03-15T12:46:46.272Z,68.09
2023-03-15T12:47:46.260Z,84.50
2023-03-15T12:48:46.249Z,87.69
2023-03-15T12:49:46.239Z,86.30
2023-03-15T12:50:46.234Z,85.09
2023-03-15T12:51:46.211Z,84.19
2023-03-15T12:52:46.218Z,81.09
2023-03-15T12:53:46.179Z,81.40
2023-03-15T12:54:46.168Z,73.90
2023-03-15T12:55:47.494Z,63.90
2023-03-15T12:56:46.148Z,64.69
2023-03-15T12:57:46.129Z,70.19
2023-03-15T12:58:46.116Z,78.69
2023-03-15T12:59:46.104Z,84.30
2023-03-15T13:00:46.093Z,69.90
2023-03-15T13:01:46.138Z,60.79
2023-03-15T13:02:46.187Z,80.80
2023-03-15T13:03:46.060Z,76.19
2023-03-15T13:04:46.039Z,74.19
2023-03-15T13:05:49.304Z,66.69
2023-03-15T13:06:46.023Z,54.09